Time;durP1;ratioP1;P1;durP2;ratioP2;P2;SDS_P1;SDS_P2;PMS_P1;PMS_P2;Temp;Humidity;BMP_temperature;BMP_pressure;BME280_temperature;BME280_humidity;BME280_pressure;Samples;Min_cycle;Max_cycle;Signal;HPM_P1;HPM_P2
2022/09/16 00:02:16;;;;;;;;;;;13.30;99.90;;;;;;5076373;28;19981;-69
2022/09/16 00:04:43;;;;;;;;;;;12.90;99.90;;;;;;5075963;28;19927;-69
2022/09/16 00:07:10;;;;;;;;;;;13.10;99.90;;;;;;5084260;28;19931;-69
2022/09/16 00:09:37;;;;;;;;;;;13.10;99.90;;;;;;5086393;28;20294;-69
2022/09/16 00:12:05;;;;;;;;;;;13.10;99.90;;;;;;5085962;28;20452;-68
2022/09/16 00:14:31;;;;;;;;;;;13.10;99.90;;;;;;5083367;28;20007;-69
2022/09/16 00:16:58;;;;;;;;;;;13.00;99.90;;;;;;5072680;28;19946;-69
2022/09/16 00:19:25;;;;;;;;;;;13.00;99.90;;;;;;5081478;28;20011;-68
2022/09/16 00:21:51;;;;;;;;;;;13.00;99.90;;;;;;5069990;28;19938;-69
2022/09/16 00:24:18;;;;;;;;;;;12.90;99.90;;;;;;5074963;28;20051;-69
2022/09/16 00:26:45;;;;;;;;;;;12.90;99.90;;;;;;5082583;28;20298;-68
2022/09/16 00:29:13;;;;;;;;;;;12.90;99.90;;;;;;5068560;28;19930;-68
2022/09/16 00:31:39;;;;;;;;;;;12.80;99.90;;;;;;5077170;28;19931;-69
2022/09/16 00:34:06;;;;;;;;;;;12.70;99.90;;;;;;5087518;28;19930;-68
2022/09/16 00:36:32;;;;;;;;;;;12.70;99.90;;;;;;5078844;28;19925;-69
2022/09/16 00:38:59;;;;;;;;;;;12.70;99.90;;;;;;5074129;28;20019;-69
2022/09/16 00:41:29;;;;;;;;;;;12.60;99.90;;;;;;5083607;28;20013;-69
2022/09/16 00:43:57;;;;;;;;;;;12.60;99.90;;;;;;5083639;28;19925;-69
2022/09/16 00:46:29;;;;;;;;;;;12.50;99.90;;;;;;5076141;28;19939;-69
2022/09/16 00:48:57;;;;;;;;;;;12.50;99.90;;;;;;5076384;28;19924;-69
2022/09/16 00:51:24;;;;;;;;;;;12.50;99.90;;;;;;5075810;28;19930;-69
2022/09/16 00:53:55;;;;;;;;;;;12.50;99.90;;;;;;5073314;28;20022;-69
2022/09/16 00:56:23;;;;;;;;;;;12.40;99.90;;;;;;5076553;28;19931;-70
2022/09/16 00:58:52;;;;;;;;;;;12.40;99.90;;;;;;5084944;28;19924;-69
2022/09/16 01:01:19;;;;;;;;;;;12.40;99.90;;;;;;5083714;28;19930;-69
2022/09/16 01:03:49;;;;;;;;;;;12.30;99.90;;;;;;5073591;28;19924;-70
2022/09/16 01:06:17;;;;;;;;;;;12.30;99.90;;;;;;5081673;28;19930;-69
2022/09/16 01:08:45;;;;;;;;;;;12.30;99.90;;;;;;5070895;28;20430;-69
2022/09/16 01:11:12;;;;;;;;;;;12.20;99.90;;;;;;5081227;28;19924;-69
2022/09/16 01:13:38;;;;;;;;;;;12.20;99.90;;;;;;5083461;28;19931;-69
2022/09/16 01:16:07;;;;;;;;;;;12.20;99.90;;;;;;5079950;28;20263;-69
2022/09/16 01:18:38;;;;;;;;;;;12.20;99.90;;;;;;5087611;28;19924;-68
2022/09/16 01:21:18;;;;;;;;;;;12.20;99.90;;;;;;5073907;28;19925;-68
2022/09/16 01:23:58;;;;;;;;;;;12.20;99.90;;;;;;5073399;28;20001;-69
2022/09/16 01:26:35;;;;;;;;;;;12.10;99.90;;;;;;5076510;28;19924;-69
2022/09/16 01:29:09;;;;;;;;;;;12.10;99.90;;;;;;5076593;28;21199;-69
2022/09/16 01:31:40;;;;;;;;;;;12.20;99.90;;;;;;5077449;28;19935;-69
2022/09/16 01:34:15;;;;;;;;;;;12.20;99.90;;;;;;5075527;28;19928;-69
2022/09/16 01:36:48;;;;;;;;;;;12.20;99.90;;;;;;5075755;28;19931;-69
2022/09/16 01:39:20;;;;;;;;;;;12.30;99.90;;;;;;5077252;28;20407;-70
2022/09/16 01:41:57;;;;;;;;;;;12.40;99.90;;;;;;5079352;28;19925;-69
2022/09/16 01:44:28;;;;;;;;;;;12.40;99.90;;;;;;5075671;28;19924;-70
2022/09/16 01:46:59;;;;;;;;;;;12.50;99.90;;;;;;5086020;28;19952;-69
2022/09/16 01:49:31;;;;;;;;;;;12.60;99.90;;;;;;5080778;28;19931;-70
2022/09/16 01:52:02;;;;;;;;;;;12.60;99.90;;;;;;5074326;28;19924;-71
2022/09/16 01:54:32;;;;;;;;;;;12.60;99.90;;;;;;5078508;28;20464;-70
2022/09/16 01:57:01;;;;;;;;;;;12.70;99.90;;;;;;5076773;28;19940;-68
2022/09/16 01:59:29;;;;;;;;;;;12.80;99.90;;;;;;5070381;28;19974;-68
2022/09/16 02:02:00;;;;;;;;;;;12.80;99.90;;;;;;5080226;28;19929;-68
2022/09/16 02:04:29;;;;;;;;;;;12.90;99.90;;;;;;5082836;28;19929;-68
2022/09/16 02:06:57;;;;;;;;;;;12.90;99.90;;;;;;5077729;28;19924;-68
2022/09/16 02:09:26;;;;;;;;;;;12.90;99.90;;;;;;5081799;28;19978;-68
2022/09/16 02:11:55;;;;;;;;;;;12.90;99.90;;;;;;5083025;28;19924;-68
2022/09/16 02:14:24;;;;;;;;;;;12.90;99.90;;;;;;5083446;28;19928;-68
2022/09/16 02:16:54;;;;;;;;;;;13.00;99.90;;;;;;5081954;28;19931;-67
2022/09/16 02:19:24;;;;;;;;;;;13.00;99.90;;;;;;5083827;28;19929;-70
2022/09/16 02:21:51;;;;;;;;;;;12.90;99.90;;;;;;5079161;28;20406;-70
2022/09/16 02:24:19;;;;;;;;;;;12.90;99.90;;;;;;5075868;28;19925;-70
2022/09/16 02:26:47;;;;;;;;;;;12.80;99.90;;;;;;5084600;28;19930;-70
2022/09/16 02:29:16;;;;;;;;;;;12.80;99.90;;;;;;5083165;28;19928;-70
2022/09/16 02:31:44;;;;;;;;;;;12.90;99.90;;;;;;5080522;28;20310;-70
2022/09/16 02:34:12;;;;;;;;;;;12.80;99.90;;;;;;5081899;28;20310;-70
2022/09/16 02:36:43;;;;;;;;;;;12.80;99.90;;;;;;5081690;28;20300;-71
2022/09/16 02:39:11;;;;;;;;;;;12.70;99.90;;;;;;5084739;28;19924;-68
2022/09/16 02:41:39;;;;;;;;;;;12.70;99.90;;;;;;5082354;28;19924;-68
2022/09/16 02:44:06;;;;;;;;;;;12.70;99.90;;;;;;5083054;28;20376;-71
2022/09/16 02:46:37;;;;;;;;;;;12.70;99.90;;;;;;5083219;28;20443;-69
2022/09/16 02:49:09;;;;;;;;;;;12.70;99.90;;;;;;5083953;28;19930;-69
2022/09/16 02:51:41;;;;;;;;;;;12.70;99.90;;;;;;5077448;28;19959;-69
2022/09/16 02:54:15;;;;;;;;;;;12.70;99.90;;;;;;5073907;28;19937;-69
2022/09/16 02:56:42;;;;;;;;;;;12.70;99.90;;;;;;5080909;28;20019;-69
2022/09/16 02:59:11;;;;;;;;;;;12.70;99.90;;;;;;5079293;28;19924;-69
2022/09/16 03:01:40;;;;;;;;;;;12.80;99.90;;;;;;5081366;28;20390;-69
2022/09/16 03:04:08;;;;;;;;;;;12.70;99.90;;;;;;5082508;28;19924;-69
2022/09/16 03:06:35;;;;;;;;;;;12.70;99.90;;;;;;5078513;28;19924;-69
2022/09/16 03:09:04;;;;;;;;;;;12.70;99.90;;;;;;5079002;28;19971;-69
2022/09/16 03:11:46;;;;;;;;;;;12.70;99.90;;;;;;5095426;28;20022;-69
2022/09/16 03:14:20;;;;;;;;;;;12.60;99.90;;;;;;5077335;28;19932;-69
2022/09/16 03:16:53;;;;;;;;;;;12.60;99.90;;;;;;5087964;28;19931;-69
2022/09/16 03:19:24;;;;;;;;;;;12.60;99.90;;;;;;5073217;28;19984;-69
2022/09/16 03:21:54;;;;;;;;;;;12.50;99.90;;;;;;5073211;28;19924;-69
2022/09/16 03:24:24;;;;;;;;;;;12.40;99.90;;;;;;5081287;28;20444;-69
2022/09/16 03:26:57;;;;;;;;;;;12.30;99.90;;;;;;5079752;28;19924;-69
2022/09/16 03:29:26;;;;;;;;;;;12.30;99.90;;;;;;5083734;28;20414;-69
2022/09/16 03:31:57;;;;;;;;;;;12.30;99.90;;;;;;5078048;28;20309;-70
2022/09/16 03:34:26;;;;;;;;;;;12.20;99.90;;;;;;5075846;28;19928;-70
2022/09/16 03:36:56;;;;;;;;;;;12.20;99.90;;;;;;5081286;28;20367;-70
2022/09/16 03:39:23;;;;;;;;;;;12.30;99.90;;;;;;5082024;28;19931;-70
2022/09/16 03:41:51;;;;;;;;;;;12.30;99.90;;;;;;5080039;28;19928;-68
2022/09/16 03:44:18;;;;;;;;;;;12.40;99.90;;;;;;5081663;28;20002;-70
2022/09/16 03:46:45;;;;;;;;;;;12.30;99.90;;;;;;5082166;28;19932;-70
2022/09/16 03:49:12;;;;;;;;;;;12.20;99.90;;;;;;5078433;28;19929;-70
2022/09/16 03:51:39;;;;;;;;;;;12.20;99.90;;;;;;5081905;28;20376;-70
2022/09/16 03:54:05;;;;;;;;;;;12.30;99.90;;;;;;5079139;28;19924;-69
2022/09/16 03:56:32;;;;;;;;;;;12.30;99.90;;;;;;5074377;28;19931;-69
2022/09/16 03:59:00;;;;;;;;;;;12.30;99.90;;;;;;5082044;28;19931;-69
2022/09/16 04:01:26;;;;;;;;;;;12.40;99.90;;;;;;5080549;28;20386;-69
2022/09/16 04:03:53;;;;;;;;;;;12.30;99.90;;;;;;5093539;28;19931;-69
2022/09/16 04:06:20;;;;;;;;;;;12.30;99.90;;;;;;5079338;28;19932;-70
2022/09/16 04:08:49;;;;;;;;;;;12.30;99.90;;;;;;5076482;28;19924;-69
2022/09/16 04:11:16;;;;;;;;;;;12.30;99.90;;;;;;5079710;28;19928;-69
2022/09/16 04:13:42;;;;;;;;;;;12.30;99.90;;;;;;5074225;28;20303;-69
2022/09/16 04:16:10;;;;;;;;;;;12.30;99.90;;;;;;5077627;28;20423;-70
2022/09/16 04:18:37;;;;;;;;;;;12.30;99.90;;;;;;5082041;28;20362;-69
2022/09/16 04:21:05;;;;;;;;;;;12.30;99.90;;;;;;5083171;28;20991;-69
2022/09/16 04:23:31;;;;;;;;;;;12.40;99.90;;;;;;5081449;28;19928;-69
2022/09/16 04:25:59;;;;;;;;;;;12.50;99.90;;;;;;5077668;28;19924;-69
2022/09/16 04:28:26;;;;;;;;;;;12.40;99.90;;;;;;5078083;28;19932;-69
2022/09/16 04:30:52;;;;;;;;;;;12.40;99.90;;;;;;5074426;28;20039;-69
2022/09/16 04:33:20;;;;;;;;;;;12.50;99.90;;;;;;5078252;28;19925;-69
2022/09/16 04:35:47;;;;;;;;;;;12.40;99.90;;;;;;5082342;28;20379;-69
2022/09/16 04:38:14;;;;;;;;;;;12.50;99.90;;;;;;5087413;28;19931;-70
2022/09/16 04:40:40;;;;;;;;;;;12.40;99.90;;;;;;5080381;28;19928;-69
2022/09/16 04:43:08;;;;;;;;;;;12.30;99.90;;;;;;5094373;28;19936;-68
2022/09/16 04:45:35;;;;;;;;;;;12.20;99.90;;;;;;5087912;28;19924;-69
2022/09/16 04:48:01;;;;;;;;;;;12.20;99.90;;;;;;5072442;28;19983;-69
2022/09/16 04:50:29;;;;;;;;;;;12.30;99.90;;;;;;5081741;28;19928;-69
2022/09/16 04:52:56;;;;;;;;;;;12.30;99.90;;;;;;5084401;28;19928;-69
2022/09/16 04:55:23;;;;;;;;;;;12.40;99.90;;;;;;5085645;28;20364;-69
2022/09/16 04:57:51;;;;;;;;;;;12.40;99.90;;;;;;5081814;28;20019;-68
2022/09/16 05:00:17;;;;;;;;;;;12.40;99.90;;;;;;5074734;28;19925;-69
2022/09/16 05:02:44;;;;;;;;;;;12.40;99.90;;;;;;5086825;28;20014;-69
2022/09/16 05:05:11;;;;;;;;;;;12.40;99.90;;;;;;5081999;28;19932;-69
2022/09/16 05:07:39;;;;;;;;;;;12.40;99.90;;;;;;5082955;28;19931;-69
2022/09/16 05:10:06;;;;;;;;;;;12.50;99.90;;;;;;5084252;28;19924;-70
2022/09/16 05:12:33;;;;;;;;;;;12.50;99.90;;;;;;5084241;28;19940;-70
2022/09/16 05:15:00;;;;;;;;;;;12.50;99.90;;;;;;5090489;28;19946;-70
2022/09/16 05:17:28;;;;;;;;;;;12.40;99.90;;;;;;5074701;28;19932;-70
2022/09/16 05:19:55;;;;;;;;;;;12.40;99.90;;;;;;5076731;28;19924;-70
2022/09/16 05:22:22;;;;;;;;;;;12.30;99.90;;;;;;5078406;28;19924;-71
2022/09/16 05:24:50;;;;;;;;;;;12.30;99.90;;;;;;5077802;28;20355;-71
2022/09/16 05:27:16;;;;;;;;;;;12.30;99.90;;;;;;5074235;28;20004;-71
2022/09/16 05:29:43;;;;;;;;;;;12.40;99.90;;;;;;5074685;28;19932;-71
2022/09/16 05:32:10;;;;;;;;;;;12.50;99.90;;;;;;5077226;28;19924;-70
2022/09/16 05:34:36;;;;;;;;;;;12.30;99.90;;;;;;5080344;28;19935;-71
2022/09/16 05:37:03;;;;;;;;;;;12.30;99.90;;;;;;5076661;28;20010;-72
2022/09/16 05:39:30;;;;;;;;;;;12.30;99.90;;;;;;5078303;28;19924;-70
2022/09/16 05:41:59;;;;;;;;;;;12.30;99.90;;;;;;5077772;28;20152;-71
2022/09/16 05:44:27;;;;;;;;;;;12.30;99.90;;;;;;5076829;28;19985;-71
2022/09/16 05:46:54;;;;;;;;;;;12.30;99.90;;;;;;5073509;28;20356;-71
2022/09/16 05:49:20;;;;;;;;;;;12.20;99.90;;;;;;5077283;28;20137;-70
2022/09/16 05:51:47;;;;;;;;;;;12.20;99.90;;;;;;5085003;28;19924;-72
2022/09/16 05:54:14;;;;;;;;;;;12.20;99.90;;;;;;5085234;28;20015;-72
2022/09/16 05:56:41;;;;;;;;;;;12.20;99.90;;;;;;5073683;28;19963;-71
2022/09/16 05:59:11;;;;;;;;;;;12.20;99.90;;;;;;5072966;28;19932;-72
2022/09/16 06:01:38;;;;;;;;;;;12.20;99.90;;;;;;5082768;28;19924;-72
2022/09/16 06:04:05;;;;;;;;;;;12.20;99.90;;;;;;5076110;28;19932;-72
2022/09/16 06:06:32;;;;;;;;;;;12.20;99.90;;;;;;5072313;28;19931;-67
2022/09/16 06:09:00;;;;;;;;;;;12.20;99.90;;;;;;5079556;28;20055;-67
2022/09/16 06:11:27;;;;;;;;;;;12.30;99.90;;;;;;5073552;28;19930;-70
2022/09/16 06:13:55;;;;;;;;;;;12.30;99.90;;;;;;5077391;28;19946;-70
2022/09/16 06:16:25;;;;;;;;;;;12.30;99.90;;;;;;5080693;28;19924;-70
2022/09/16 06:18:52;;;;;;;;;;;12.40;99.90;;;;;;5081122;28;20306;-70
2022/09/16 06:21:18;;;;;;;;;;;12.20;99.90;;;;;;5078669;28;20332;-70
2022/09/16 06:23:45;;;;;;;;;;;12.30;99.90;;;;;;5079744;28;20430;-70
2022/09/16 06:26:13;;;;;;;;;;;12.40;99.90;;;;;;5082034;28;20019;-70
2022/09/16 06:28:39;;;;;;;;;;;12.40;99.90;;;;;;5086786;28;19950;-71
2022/09/16 06:31:07;;;;;;;;;;;12.40;99.90;;;;;;5088632;28;19924;-70
2022/09/16 06:33:35;;;;;;;;;;;12.40;99.90;;;;;;5080509;28;19924;-71
2022/09/16 06:36:03;;;;;;;;;;;12.40;99.90;;;;;;5075132;28;19928;-71
2022/09/16 06:38:29;;;;;;;;;;;12.40;99.90;;;;;;5081603;28;19946;-71
2022/09/16 06:40:57;;;;;;;;;;;12.40;99.90;;;;;;5078146;28;20298;-70
2022/09/16 06:43:24;;;;;;;;;;;12.50;99.90;;;;;;5084177;28;19924;-71
2022/09/16 06:45:51;;;;;;;;;;;12.50;99.90;;;;;;5074987;28;19932;-71
2022/09/16 06:48:17;;;;;;;;;;;12.60;99.90;;;;;;5069391;28;19928;-71
2022/09/16 06:50:45;;;;;;;;;;;12.70;99.90;;;;;;5073454;28;19924;-71
2022/09/16 06:53:12;;;;;;;;;;;12.70;99.90;;;;;;5085007;28;19924;-71
2022/09/16 06:55:39;;;;;;;;;;;12.70;99.90;;;;;;5076394;28;19994;-71
2022/09/16 06:58:06;;;;;;;;;;;12.70;99.90;;;;;;5079846;28;20006;-71
2022/09/16 07:00:32;;;;;;;;;;;12.80;99.90;;;;;;5084193;28;19975;-71
2022/09/16 07:03:01;;;;;;;;;;;12.80;99.90;;;;;;5079155;28;20031;-71
2022/09/16 07:05:28;;;;;;;;;;;12.90;99.90;;;;;;5078741;28;20327;-71
2022/09/16 07:07:57;;;;;;;;;;;12.90;99.90;;;;;;5076147;28;19930;-71
2022/09/16 07:10:24;;;;;;;;;;;12.80;99.90;;;;;;5072958;28;20279;-71
2022/09/16 07:12:51;;;;;;;;;;;12.70;99.90;;;;;;5077265;28;19931;-71
2022/09/16 07:15:18;;;;;;;;;;;12.70;99.90;;;;;;5082024;28;20350;-71
2022/09/16 07:17:45;;;;;;;;;;;12.70;99.90;;;;;;5088606;28;20008;-70
2022/09/16 07:20:11;;;;;;;;;;;12.80;99.90;;;;;;5083858;28;19959;-71
2022/09/16 07:22:38;;;;;;;;;;;12.80;99.90;;;;;;5081414;28;19925;-70
2022/09/16 07:25:07;;;;;;;;;;;12.80;99.90;;;;;;5099643;28;19936;-70
2022/09/16 07:27:34;;;;;;;;;;;13.00;99.90;;;;;;5087967;28;20006;-70
2022/09/16 07:30:00;;;;;;;;;;;13.10;99.90;;;;;;5088463;28;21697;-70
2022/09/16 07:32:27;;;;;;;;;;;13.10;99.90;;;;;;5094895;28;19925;-70
2022/09/16 07:34:54;;;;;;;;;;;13.20;99.90;;;;;;5087745;28;20035;-71
2022/09/16 07:37:20;;;;;;;;;;;13.20;99.90;;;;;;5081229;28;19924;-71
2022/09/16 07:39:47;;;;;;;;;;;13.20;99.90;;;;;;5079968;28;20386;-71
2022/09/16 07:42:15;;;;;;;;;;;13.10;99.90;;;;;;5087461;28;19990;-71
2022/09/16 07:44:42;;;;;;;;;;;13.10;99.90;;;;;;5092021;28;19952;-71
2022/09/16 07:47:08;;;;;;;;;;;13.20;99.90;;;;;;5081177;28;19924;-71
2022/09/16 07:49:35;;;;;;;;;;;13.30;99.90;;;;;;5091987;28;20073;-70
2022/09/16 07:52:02;;;;;;;;;;;13.30;99.90;;;;;;5092927;28;20019;-70
2022/09/16 07:54:28;;;;;;;;;;;13.40;99.90;;;;;;5086615;28;19932;-70
2022/09/16 07:56:55;;;;;;;;;;;13.60;99.90;;;;;;5088575;28;19930;-71
2022/09/16 07:59:23;;;;;;;;;;;13.70;99.90;;;;;;5087084;28;19944;-70
2022/09/16 08:01:50;;;;;;;;;;;13.70;99.90;;;;;;5075730;28;20371;-71
2022/09/16 08:04:17;;;;;;;;;;;13.70;99.90;;;;;;5078819;28;20584;-70
2022/09/16 08:06:44;;;;;;;;;;;13.90;99.90;;;;;;5076572;28;19928;-72
2022/09/16 08:09:10;;;;;;;;;;;14.00;99.90;;;;;;5074474;28;19926;-71
2022/09/16 08:11:37;;;;;;;;;;;14.00;99.90;;;;;;5075014;28;20235;-71
2022/09/16 08:14:04;;;;;;;;;;;13.90;99.90;;;;;;5077778;28;19932;-70
2022/09/16 08:16:32;;;;;;;;;;;13.90;99.90;;;;;;5074497;28;20022;-70
2022/09/16 08:18:58;;;;;;;;;;;13.90;99.90;;;;;;5075899;28;19997;-71
2022/09/16 08:21:26;;;;;;;;;;;14.00;99.90;;;;;;5080061;28;19963;-71
2022/09/16 08:23:53;;;;;;;;;;;13.70;99.90;;;;;;5079539;28;19937;-70
2022/09/16 08:26:20;;;;;;;;;;;13.40;99.90;;;;;;5077680;28;20395;-72
2022/09/16 08:28:48;;;;;;;;;;;12.80;99.90;;;;;;5094176;28;19930;-72
2022/09/16 08:31:15;;;;;;;;;;;12.80;99.90;;;;;;5083108;28;20456;-72
2022/09/16 08:33:44;;;;;;;;;;;12.70;99.90;;;;;;5083207;28;20037;-72
2022/09/16 08:36:13;;;;;;;;;;;12.80;99.90;;;;;;5076843;28;19932;-72
2022/09/16 08:38:40;;;;;;;;;;;13.00;99.90;;;;;;5079310;28;19955;-72
2022/09/16 08:41:15;;;;;;;;;;;13.10;99.90;;;;;;5078499;28;20324;-70
2022/09/16 08:43:44;;;;;;;;;;;13.20;99.90;;;;;;5083670;28;19928;-71
2022/09/16 08:46:17;;;;;;;;;;;13.20;99.90;;;;;;5082426;28;19931;-71
2022/09/16 08:48:49;;;;;;;;;;;13.20;99.90;;;;;;5079272;28;20013;-70
2022/09/16 08:51:18;;;;;;;;;;;13.20;99.90;;;;;;5070930;28;19925;-70
2022/09/16 08:53:47;;;;;;;;;;;13.30;99.90;;;;;;5082059;28;19931;-70
2022/09/16 08:56:15;;;;;;;;;;;13.30;99.90;;;;;;5082384;28;20006;-71
2022/09/16 08:58:43;;;;;;;;;;;13.30;99.90;;;;;;5098404;28;19932;-72
2022/09/16 09:01:15;;;;;;;;;;;13.10;99.90;;;;;;5084796;28;20279;-72
2022/09/16 09:03:43;;;;;;;;;;;13.00;99.90;;;;;;5080641;28;19925;-70
2022/09/16 09:06:15;;;;;;;;;;;13.00;99.90;;;;;;5080612;28;19938;-71
2022/09/16 09:08:47;;;;;;;;;;;13.20;99.90;;;;;;5074574;28;20011;-71
2022/09/16 09:11:17;;;;;;;;;;;13.40;99.90;;;;;;5085905;28;19959;-71
2022/09/16 09:13:53;;;;;;;;;;;13.60;99.90;;;;;;5078860;28;20386;-72
2022/09/16 09:16:23;;;;;;;;;;;13.70;99.90;;;;;;5077083;28;20386;-72
2022/09/16 09:18:57;;;;;;;;;;;13.80;99.90;;;;;;5070646;28;19954;-71
2022/09/16 09:21:29;;;;;;;;;;;13.70;99.90;;;;;;5079627;28;19931;-71
2022/09/16 09:24:03;;;;;;;;;;;13.80;99.90;;;;;;5069603;28;20336;-71
2022/09/16 09:26:33;;;;;;;;;;;13.70;99.90;;;;;;5071934;28;19924;-71
2022/09/16 09:29:08;;;;;;;;;;;13.70;99.90;;;;;;5068329;28;19932;-71
2022/09/16 09:31:40;;;;;;;;;;;14.50;99.90;;;;;;5072500;28;20311;-71
2022/09/16 09:34:12;;;;;;;;;;;15.00;99.90;;;;;;5081175;28;19924;-71
2022/09/16 09:36:47;;;;;;;;;;;15.60;99.90;;;;;;5078931;28;20291;-71
2022/09/16 09:39:22;;;;;;;;;;;15.90;99.90;;;;;;5076726;28;20019;-70
2022/09/16 09:41:51;;;;;;;;;;;15.90;99.90;;;;;;5074652;28;19931;-70
2022/09/16 09:44:34;;;;;;;;;;;15.50;99.90;;;;;;5076370;28;20011;-70
2022/09/16 09:47:03;;;;;;;;;;;16.40;99.90;;;;;;5074521;28;19931;-70
2022/09/16 09:49:32;;;;;;;;;;;17.20;99.90;;;;;;5092284;28;19964;-70
2022/09/16 09:52:02;;;;;;;;;;;17.70;99.90;;;;;;5087018;28;20382;-71
2022/09/16 09:54:30;;;;;;;;;;;17.90;99.90;;;;;;5084247;28;20011;-70
2022/09/16 09:56:59;;;;;;;;;;;17.10;99.90;;;;;;5078512;28;20063;-71
2022/09/16 09:59:29;;;;;;;;;;;16.50;99.90;;;;;;5083943;28;19935;-70
2022/09/16 10:01:56;;;;;;;;;;;16.30;99.90;;;;;;5092080;28;19934;-70
2022/09/16 10:04:23;;;;;;;;;;;16.20;99.90;;;;;;5082179;28;19924;-71
2022/09/16 10:06:51;;;;;;;;;;;16.10;99.90;;;;;;5082162;28;19925;-71
2022/09/16 10:09:20;;;;;;;;;;;15.60;99.90;;;;;;5072555;28;19982;-71
2022/09/16 10:11:47;;;;;;;;;;;15.00;99.90;;;;;;5074895;28;19925;-70
2022/09/16 10:14:22;;;;;;;;;;;14.40;99.90;;;;;;5080190;28;20303;-71
2022/09/16 10:16:51;;;;;;;;;;;14.20;99.90;;;;;;5077183;28;19928;-73
2022/09/16 10:19:18;;;;;;;;;;;14.20;99.90;;;;;;5088734;28;19931;-72
2022/09/16 10:21:47;;;;;;;;;;;14.10;99.90;;;;;;5069863;28;19943;-71
2022/09/16 10:24:27;;;;;;;;;;;14.20;99.90;;;;;;5071793;28;20388;-71
2022/09/16 10:26:54;;;;;;;;;;;13.90;99.90;;;;;;5069171;28;21337;-71
2022/09/16 10:29:21;;;;;;;;;;;14.00;99.90;;;;;;5077046;28;19924;-72
2022/09/16 10:31:48;;;;;;;;;;;14.00;99.90;;;;;;5076738;28;19947;-71
2022/09/16 10:34:18;;;;;;;;;;;14.20;99.90;;;;;;5085557;28;19939;-71
2022/09/16 10:36:45;;;;;;;;;;;14.30;99.90;;;;;;5075373;28;20305;-71
2022/09/16 10:39:21;;;;;;;;;;;14.40;99.90;;;;;;5075623;28;19931;-71
2022/09/16 10:41:49;;;;;;;;;;;14.90;99.90;;;;;;5086800;28;19930;-71
2022/09/16 10:44:18;;;;;;;;;;;15.10;99.90;;;;;;5091413;28;20070;-71
2022/09/16 10:46:52;;;;;;;;;;;15.50;99.90;;;;;;5084828;28;20413;-71
2022/09/16 10:49:21;;;;;;;;;;;15.90;99.90;;;;;;5083619;28;19925;-71
2022/09/16 10:51:47;;;;;;;;;;;15.90;99.90;;;;;;5081199;28;19946;-71
2022/09/16 10:54:23;;;;;;;;;;;15.70;99.90;;;;;;5083671;28;20023;-71
2022/09/16 10:56:51;;;;;;;;;;;15.20;99.90;;;;;;5079355;28;19932;-71
2022/09/16 10:59:18;;;;;;;;;;;14.50;99.90;;;;;;5083388;28;19924;-72
2022/09/16 11:01:47;;;;;;;;;;;14.20;99.90;;;;;;5080583;28;20026;-71
2022/09/16 11:04:31;;;;;;;;;;;14.00;99.90;;;;;;5073876;28;20031;-71
2022/09/16 11:07:04;;;;;;;;;;;13.80;99.90;;;;;;5078162;28;19934;-72
2022/09/16 11:09:34;;;;;;;;;;;13.80;99.90;;;;;;5082369;28;19924;-71
2022/09/16 11:12:17;;;;;;;;;;;13.80;99.90;;;;;;5077025;28;19925;-72
2022/09/16 11:14:48;;;;;;;;;;;14.10;99.90;;;;;;5078978;28;19955;-72
2022/09/16 11:17:26;;;;;;;;;;;14.40;99.90;;;;;;5079743;28;19970;-71
2022/09/16 11:20:00;;;;;;;;;;;14.40;99.90;;;;;;5078520;28;20310;-71
2022/09/16 11:22:31;;;;;;;;;;;14.60;99.90;;;;;;5091216;28;19924;-73
2022/09/16 11:25:17;;;;;;;;;;;14.80;99.90;;;;;;5074710;28;19932;-72
2022/09/16 11:27:51;;;;;;;;;;;15.10;99.90;;;;;;5076570;28;19938;-73
2022/09/16 11:30:19;;;;;;;;;;;15.10;99.90;;;;;;5090429;28;19923;-73
2022/09/16 11:32:53;;;;;;;;;;;15.30;99.90;;;;;;5080840;28;19951;-73
2022/09/16 11:35:25;;;;;;;;;;;15.50;99.90;;;;;;5079729;28;20015;-73
2022/09/16 11:37:58;;;;;;;;;;;15.60;99.90;;;;;;5087032;28;19924;-73
2022/09/16 11:40:31;;;;;;;;;;;15.90;99.90;;;;;;5080141;28;19923;-73
2022/09/16 11:43:02;;;;;;;;;;;15.90;99.90;;;;;;5078938;28;20337;-72
2022/09/16 11:45:36;;;;;;;;;;;15.50;99.90;;;;;;5077883;28;19936;-73
2022/09/16 11:48:21;;;;;;;;;;;15.40;99.90;;;;;;5072198;28;19925;-74
2022/09/16 11:50:52;;;;;;;;;;;15.10;99.90;;;;;;5077778;28;20377;-72
2022/09/16 11:53:26;;;;;;;;;;;14.90;99.90;;;;;;5089523;28;19924;-73
2022/09/16 11:55:56;;;;;;;;;;;14.80;99.90;;;;;;5076299;28;19928;-73
2022/09/16 11:58:26;;;;;;;;;;;14.70;99.90;;;;;;5082537;28;19939;-74
2022/09/16 12:00:56;;;;;;;;;;;14.50;99.90;;;;;;5076133;28;19931;-75
2022/09/16 12:03:27;;;;;;;;;;;14.30;99.90;;;;;;5077084;28;19959;-74
2022/09/16 12:06:02;;;;;;;;;;;14.00;99.90;;;;;;5084618;28;20020;-74
2022/09/16 12:08:31;;;;;;;;;;;13.60;99.90;;;;;;5078728;28;19989;-74
2022/09/16 12:10:59;;;;;;;;;;;13.30;99.90;;;;;;5080533;28;19958;-75
2022/09/16 12:13:30;;;;;;;;;;;13.20;99.90;;;;;;5085296;28;19967;-75
2022/09/16 12:15:58;;;;;;;;;;;13.10;99.90;;;;;;5085414;28;19975;-75
2022/09/16 12:18:27;;;;;;;;;;;13.10;99.90;;;;;;5083825;28;20406;-71
2022/09/16 12:20:56;;;;;;;;;;;13.10;99.90;;;;;;5070987;28;19961;-71
2022/09/16 12:23:24;;;;;;;;;;;12.80;99.90;;;;;;5071197;28;20304;-71
2022/09/16 12:25:59;;;;;;;;;;;12.40;99.90;;;;;;5073655;28;19932;-71
2022/09/16 12:28:29;;;;;;;;;;;12.30;99.90;;;;;;5076419;28;19938;-70
2022/09/16 12:31:01;;;;;;;;;;;12.20;99.90;;;;;;5073259;28;19947;-70
2022/09/16 12:33:31;;;;;;;;;;;12.40;99.90;;;;;;5079561;28;19932;-76
2022/09/16 12:36:02;;;;;;;;;;;12.70;99.90;;;;;;5072945;28;20024;-75
2022/09/16 12:38:29;;;;;;;;;;;13.10;99.90;;;;;;5073715;28;19932;-71
2022/09/16 12:41:02;;;;;;;;;;;13.20;99.90;;;;;;5077062;28;19931;-80
2022/09/16 12:43:36;;;;;;;;;;;13.50;99.90;;;;;;5077113;28;20027;-71
2022/09/16 12:46:21;;;;;;;;;;;13.60;99.90;;;;;;5074477;28;19931;-73
2022/09/16 12:48:58;;;;;;;;;;;14.00;99.90;;;;;;5083616;28;19924;-71
2022/09/16 12:51:39;;;;;;;;;;;14.40;99.90;;;;;;5077884;28;19928;-70
2022/09/16 12:54:17;;;;;;;;;;;14.50;99.90;;;;;;5072837;28;19964;-71
2022/09/16 12:56:51;;;;;;;;;;;14.70;99.90;;;;;;5072795;28;20011;-74
2022/09/16 12:59:35;;;;;;;;;;;14.70;99.90;;;;;;5070541;28;19924;-74
2022/09/16 13:02:05;;;;;;;;;;;15.10;99.90;;;;;;5076345;28;19924;-74
2022/09/16 13:04:34;;;;;;;;;;;15.30;99.90;;;;;;5077234;28;19938;-74
2022/09/16 13:07:01;;;;;;;;;;;14.80;99.90;;;;;;5083161;28;20359;-74
2022/09/16 13:09:30;;;;;;;;;;;15.00;99.90;;;;;;5075089;28;19924;-72
2022/09/16 13:12:00;;;;;;;;;;;15.20;99.90;;;;;;5072582;28;19924;-72
2022/09/16 13:14:29;;;;;;;;;;;15.60;99.90;;;;;;5072709;28;19943;-74
2022/09/16 13:16:58;;;;;;;;;;;15.50;99.90;;;;;;5072545;28;19987;-74
2022/09/16 13:19:43;;;;;;;;;;;15.10;99.90;;;;;;5084341;28;19931;-78
2022/09/16 13:22:24;;;;;;;;;;;14.30;99.90;;;;;;5077721;28;20081;-80
2022/09/16 13:24:53;;;;;;;;;;;13.80;99.90;;;;;;5080825;28;19932;-79
2022/09/16 13:27:31;;;;;;;;;;;13.70;99.90;;;;;;5075587;28;19939;-76
2022/09/16 13:30:27;;;;;;;;;;;13.60;99.90;;;;;;5070861;28;19970;-77
2022/09/16 13:32:59;;;;;;;;;;;13.70;99.90;;;;;;5080292;28;19925;-76
2022/09/16 13:35:40;;;;;;;;;;;13.50;99.90;;;;;;5087144;28;19951;-75
2022/09/16 13:38:37;;;;;;;;;;;13.50;99.90;;;;;;5072137;28;20303;-74
2022/09/16 13:41:04;;;;;;;;;;;13.40;99.90;;;;;;5070818;28;19933;-74
2022/09/16 13:43:33;;;;;;;;;;;13.30;99.90;;;;;;5072797;28;19931;-73
2022/09/16 13:46:04;;;;;;;;;;;13.40;99.90;;;;;;5078093;28;20612;-74
2022/09/16 13:48:35;;;;;;;;;;;13.50;99.90;;;;;;5079513;28;19977;-74
2022/09/16 13:51:07;;;;;;;;;;;13.90;99.90;;;;;;5078790;28;19947;-73
2022/09/16 13:53:36;;;;;;;;;;;14.40;99.90;;;;;;5081097;28;20023;-74
2022/09/16 13:56:06;;;;;;;;;;;14.80;99.90;;;;;;5083383;28;20598;-73
2022/09/16 13:58:35;;;;;;;;;;;15.00;99.90;;;;;;5085025;28;19931;-73
2022/09/16 14:01:04;;;;;;;;;;;14.90;99.90;;;;;;5082326;28;19936;-72
2022/09/16 14:03:41;;;;;;;;;;;14.80;99.90;;;;;;5079244;28;20452;-73
2022/09/16 14:06:20;;;;;;;;;;;14.40;99.90;;;;;;5083902;28;19932;-74
2022/09/16 14:08:52;;;;;;;;;;;13.80;99.90;;;;;;5089024;28;19943;-74
2022/09/16 14:11:22;;;;;;;;;;;13.20;99.90;;;;;;5074787;28;19928;-75
2022/09/16 14:13:50;;;;;;;;;;;12.60;99.90;;;;;;5076197;28;20011;-74
2022/09/16 14:16:19;;;;;;;;;;;12.80;99.90;;;;;;5086890;28;19974;-72
2022/09/16 14:18:52;;;;;;;;;;;12.80;99.90;;;;;;5076792;28;19925;-75
2022/09/16 14:21:20;;;;;;;;;;;12.90;99.90;;;;;;5082142;28;19978;-72
2022/09/16 14:23:47;;;;;;;;;;;13.10;99.90;;;;;;5082078;28;20461;-75
2022/09/16 14:26:15;;;;;;;;;;;13.10;99.90;;;;;;5080995;28;20026;-74
2022/09/16 14:28:41;;;;;;;;;;;13.10;99.90;;;;;;5079559;28;20034;-73
2022/09/16 14:31:10;;;;;;;;;;;13.20;99.90;;;;;;5073666;28;19931;-73